createdAt,value
2023-03-29T00:02:18.337Z,9.35
2023-03-29T00:04:45.109Z,9.52
2023-03-29T00:07:14.066Z,9.57
2023-03-29T00:09:40.477Z,9.68
2023-03-29T00:12:07.137Z,9.66
2023-03-29T00:14:33.562Z,9.16
2023-03-29T00:17:00.024Z,9.43
2023-03-29T00:19:26.560Z,9.48
2023-03-29T00:21:53.045Z,9.46
2023-03-29T00:24:21.032Z,9.49
2023-03-29T00:26:47.647Z,9.51
2023-03-29T00:29:14.030Z,9.63
2023-03-29T00:31:40.420Z,9.26
2023-03-29T00:34:07.210Z,9.34
2023-03-29T00:36:33.639Z,9.12
2023-03-29T00:39:00.006Z,9.12
2023-03-29T00:41:26.414Z,9.20
2023-03-29T00:43:59.498Z,9.36
2023-03-29T00:46:27.452Z,9.33
2023-03-29T00:48:56.513Z,9.30
2023-03-29T00:51:25.398Z,9.31
2023-03-29T00:53:56.356Z,9.18
2023-03-29T00:56:37.095Z,9.17
2023-03-29T00:59:07.135Z,9.20
2023-03-29T01:01:54.595Z,9.11
2023-03-29T01:04:30.930Z,9.21
2023-03-29T01:07:03.596Z,9.25
2023-03-29T01:09:33.416Z,8.84
2023-03-29T01:12:03.315Z,8.96
2023-03-29T01:14:33.870Z,9.07
2023-03-29T01:17:00.398Z,9.11
2023-03-29T01:19:30.330Z,8.86
2023-03-29T01:22:04.787Z,9.03
2023-03-29T01:24:46.223Z,8.80
2023-03-29T01:27:18.147Z,8.88
2023-03-29T01:29:48.985Z,8.93
2023-03-29T01:32:23.512Z,8.92
2023-03-29T01:34:58.698Z,9.00
2023-03-29T01:37:28.730Z,9.03
2023-03-29T01:39:55.210Z,9.04
2023-03-29T01:42:31.002Z,9.08
2023-03-29T01:45:00.443Z,9.08
2023-03-29T01:47:32.826Z,8.93
2023-03-29T01:50:06.451Z,8.98
2023-03-29T01:52:39.983Z,8.95
2023-03-29T01:55:17.296Z,9.03
2023-03-29T01:57:45.275Z,9.03
2023-03-29T02:00:19.211Z,8.97
2023-03-29T02:02:46.547Z,8.88
2023-03-29T02:05:14.840Z,8.93
2023-03-29T02:07:43.549Z,8.85
2023-03-29T02:10:11.553Z,8.87
2023-03-29T02:12:38.225Z,8.80
2023-03-29T02:15:16.225Z,8.62
2023-03-29T02:17:44.152Z,8.56
2023-03-29T02:20:17.181Z,8.58
2023-03-29T02:22:58.956Z,8.49
2023-03-29T02:25:25.964Z,8.30
2023-03-29T02:27:52.841Z,8.04
2023-03-29T02:30:21.057Z,8.07
2023-03-29T02:32:51.468Z,8.13
2023-03-29T02:35:22.326Z,8.01
2023-03-29T02:37:51.512Z,7.91
2023-03-29T02:40:18.128Z,7.52
2023-03-29T02:42:45.575Z,7.65
2023-03-29T02:45:14.491Z,7.65
2023-03-29T02:47:48.271Z,8.07
2023-03-29T02:50:14.769Z,8.20
2023-03-29T02:52:43.459Z,8.27
2023-03-29T02:55:14.947Z,8.25
2023-03-29T02:57:43.427Z,8.19
2023-03-29T03:00:11.249Z,8.22
2023-03-29T03:02:37.945Z,8.32
2023-03-29T03:05:05.719Z,8.34
2023-03-29T03:07:33.683Z,8.31
2023-03-29T03:10:00.151Z,8.45
2023-03-29T03:12:27.089Z,8.05
2023-03-29T03:14:53.591Z,8.23
2023-03-29T03:17:20.014Z,8.36
2023-03-29T03:19:46.496Z,8.35
2023-03-29T03:22:13.111Z,8.45
2023-03-29T03:24:39.536Z,8.60
2023-03-29T03:27:06.234Z,8.43
2023-03-29T03:29:32.714Z,8.38
2023-03-29T03:31:59.119Z,8.47
2023-03-29T03:34:26.218Z,8.51
2023-03-29T03:36:54.583Z,8.59
2023-03-29T03:39:20.967Z,8.64
2023-03-29T03:41:47.406Z,8.78
2023-03-29T03:44:13.904Z,8.83
2023-03-29T03:46:40.325Z,8.77
2023-03-29T03:49:06.710Z,8.70
2023-03-29T03:51:33.845Z,8.75
2023-03-29T03:54:00.313Z,8.73
2023-03-29T03:56:29.804Z,8.69
2023-03-29T03:58:56.941Z,8.66
2023-03-29T04:01:23.975Z,8.76
2023-03-29T04:03:50.840Z,8.81
2023-03-29T04:06:17.374Z,8.95
2023-03-29T04:08:43.840Z,8.97
2023-03-29T04:11:10.558Z,8.90
2023-03-29T04:13:37.052Z,9.08
2023-03-29T04:16:03.672Z,9.02
2023-03-29T04:18:30.214Z,8.98
2023-03-29T04:20:57.180Z,9.21
2023-03-29T04:23:23.649Z,9.10
2023-03-29T04:25:50.131Z,9.02
2023-03-29T04:28:16.515Z,8.93
2023-03-29T04:30:43.172Z,8.87
2023-03-29T04:33:10.224Z,9.03
2023-03-29T04:35:36.782Z,9.15
2023-03-29T04:38:04.337Z,8.88
2023-03-29T04:40:30.773Z,8.91
2023-03-29T04:42:57.211Z,8.94
2023-03-29T04:45:23.744Z,9.04
2023-03-29T04:47:50.159Z,9.03
2023-03-29T04:50:16.577Z,8.97
2023-03-29T04:52:43.023Z,9.35
2023-03-29T04:55:10.476Z,9.13
2023-03-29T04:57:36.871Z,8.96
2023-03-29T05:00:08.336Z,8.88
2023-03-29T05:02:34.728Z,8.89
2023-03-29T05:05:01.119Z,8.97
2023-03-29T05:07:28.067Z,8.95
2023-03-29T05:09:54.483Z,8.96
2023-03-29T05:12:20.852Z,9.03
2023-03-29T05:14:47.344Z,9.05
2023-03-29T05:17:13.776Z,9.10
2023-03-29T05:19:43.309Z,9.09
2023-03-29T05:22:09.732Z,9.09
2023-03-29T05:24:36.128Z,9.19
2023-03-29T05:27:02.605Z,9.30
2023-03-29T05:29:29.039Z,9.15
2023-03-29T05:31:55.503Z,9.18
2023-03-29T05:34:22.426Z,9.20
2023-03-29T05:36:49.205Z,9.21
2023-03-29T05:39:15.642Z,9.16
2023-03-29T05:41:42.012Z,9.10
2023-03-29T05:44:08.524Z,9.17
2023-03-29T05:46:35.147Z,9.20
2023-03-29T05:49:02.354Z,9.32
2023-03-29T05:51:28.781Z,9.45
2023-03-29T05:53:55.447Z,9.54
2023-03-29T05:56:22.459Z,9.65
2023-03-29T05:58:49.661Z,9.67
2023-03-29T06:01:17.934Z,9.76
2023-03-29T06:03:46.420Z,9.85
2023-03-29T06:06:16.485Z,9.89
2023-03-29T06:08:44.031Z,9.83
2023-03-29T06:11:11.907Z,9.91
2023-03-29T06:13:39.051Z,10.01
2023-03-29T06:16:06.425Z,10.05
2023-03-29T06:18:33.292Z,10.14
2023-03-29T06:21:00.714Z,10.11
2023-03-29T06:23:27.300Z,10.19
2023-03-29T06:25:55.348Z,10.38
2023-03-29T06:28:22.667Z,10.73
2023-03-29T06:30:49.366Z,10.55
2023-03-29T06:33:16.939Z,10.62
2023-03-29T06:35:44.328Z,10.53
2023-03-29T06:38:11.382Z,10.47
2023-03-29T06:40:38.134Z,10.48
2023-03-29T06:43:05.314Z,10.53
2023-03-29T06:45:34.106Z,10.61
2023-03-29T06:48:00.581Z,10.68
2023-03-29T06:50:27.363Z,10.65
2023-03-29T06:52:53.804Z,10.64
2023-03-29T06:55:21.782Z,10.48
2023-03-29T06:57:48.882Z,10.41
2023-03-29T07:00:18.319Z,10.47
2023-03-29T07:02:45.942Z,10.39
2023-03-29T07:05:13.496Z,10.42
2023-03-29T07:07:59.596Z,10.42
2023-03-29T07:10:34.844Z,10.38
2023-03-29T07:13:01.240Z,10.38
2023-03-29T07:15:29.316Z,10.56
2023-03-29T07:17:56.130Z,10.71
2023-03-29T07:20:23.173Z,10.79
2023-03-29T07:22:52.913Z,10.89
2023-03-29T07:25:23.547Z,10.98
2023-03-29T07:27:50.726Z,10.86
2023-03-29T07:30:19.797Z,10.85
2023-03-29T07:32:46.924Z,11.01
2023-03-29T07:35:14.825Z,11.00
2023-03-29T07:37:42.836Z,11.05
2023-03-29T07:40:15.977Z,11.18
2023-03-29T07:42:43.900Z,11.27
2023-03-29T07:45:11.444Z,11.20
2023-03-29T07:47:38.371Z,11.23
2023-03-29T07:50:05.339Z,11.29
2023-03-29T07:52:38.051Z,11.42
2023-03-29T07:55:06.352Z,11.13
2023-03-29T07:57:32.761Z,11.13
2023-03-29T07:59:59.269Z,11.29
2023-03-29T08:02:27.094Z,11.30
2023-03-29T08:04:54.241Z,11.40
2023-03-29T08:07:21.069Z,11.65
2023-03-29T08:09:47.614Z,11.83
2023-03-29T08:12:13.977Z,11.75
2023-03-29T08:14:40.506Z,11.94
2023-03-29T08:17:07.301Z,11.61
2023-03-29T08:19:33.781Z,11.74
2023-03-29T08:22:00.522Z,11.76
2023-03-29T08:24:27.245Z,11.62
2023-03-29T08:26:53.921Z,11.72
2023-03-29T08:29:20.577Z,12.07
2023-03-29T08:31:47.135Z,12.39
2023-03-29T08:34:13.946Z,11.88
2023-03-29T08:36:40.411Z,12.12
2023-03-29T08:39:06.894Z,12.26
2023-03-29T08:41:36.718Z,12.23
2023-03-29T08:44:39.596Z,12.45
2023-03-29T08:47:07.176Z,12.42
2023-03-29T08:49:35.779Z,12.37
2023-03-29T08:52:06.706Z,12.22
2023-03-29T08:54:37.068Z,12.37
2023-03-29T08:57:16.988Z,12.42
2023-03-29T08:59:44.243Z,12.80
2023-03-29T09:02:16.692Z,12.97
2023-03-29T09:04:43.680Z,13.07
2023-03-29T09:07:10.924Z,13.19
2023-03-29T09:09:38.172Z,13.30
2023-03-29T09:12:16.636Z,13.49
2023-03-29T09:15:01.644Z,13.61
2023-03-29T09:18:09.267Z,13.60
2023-03-29T09:21:04.681Z,13.43
2023-03-29T09:23:55.854Z,13.39
2023-03-29T09:26:41.442Z,13.29
2023-03-29T09:29:31.045Z,13.56
2023-03-29T09:31:58.583Z,13.87
2023-03-29T09:34:39.448Z,13.84
2023-03-29T09:37:12.222Z,13.65
2023-03-29T09:39:40.064Z,13.36
2023-03-29T09:42:09.135Z,13.25
2023-03-29T09:44:41.610Z,13.33
2023-03-29T09:47:12.592Z,13.40
2023-03-29T09:49:43.392Z,13.38
2023-03-29T09:52:13.321Z,13.29
2023-03-29T09:54:40.210Z,13.22
2023-03-29T09:57:06.978Z,13.28
2023-03-29T09:59:33.407Z,13.40
2023-03-29T10:02:09.090Z,13.39
2023-03-29T10:04:35.939Z,13.40
2023-03-29T10:07:04.128Z,13.37
2023-03-29T10:09:30.729Z,13.59
2023-03-29T10:12:02.220Z,13.77
2023-03-29T10:14:42.625Z,13.86
2023-03-29T10:17:25.120Z,13.78
2023-03-29T10:19:55.788Z,13.89
2023-03-29T10:22:24.942Z,13.73
2023-03-29T10:24:53.105Z,14.07
2023-03-29T10:27:25.673Z,14.09
2023-03-29T10:29:52.296Z,14.23
2023-03-29T10:32:33.584Z,14.22
2023-03-29T10:35:10.677Z,14.08
2023-03-29T10:37:43.156Z,14.06
2023-03-29T10:40:22.073Z,13.78
2023-03-29T10:42:53.800Z,13.77
2023-03-29T10:45:24.793Z,13.68
2023-03-29T10:47:51.372Z,13.55
2023-03-29T10:50:17.898Z,13.66
2023-03-29T10:52:44.332Z,13.83
2023-03-29T10:55:13.367Z,13.83
2023-03-29T10:57:49.917Z,13.81
2023-03-29T11:00:21.107Z,14.24
2023-03-29T11:03:03.118Z,14.66
2023-03-29T11:05:37.349Z,14.93
2023-03-29T11:08:13.067Z,15.33
2023-03-29T11:10:42.520Z,15.51
2023-03-29T11:13:33.174Z,15.57
2023-03-29T11:16:14.787Z,15.58
2023-03-29T11:18:56.347Z,15.82
2023-03-29T11:21:42.713Z,15.89
2023-03-29T11:24:26.804Z,16.06
2023-03-29T11:27:17.923Z,16.18
2023-03-29T11:29:47.223Z,16.23
2023-03-29T11:32:38.608Z,16.23
2023-03-29T11:35:37.764Z,16.39
2023-03-29T11:38:13.700Z,16.83
2023-03-29T11:40:58.440Z,17.00
2023-03-29T11:43:49.746Z,16.84
2023-03-29T11:46:23.878Z,16.96
2023-03-29T11:48:53.940Z,16.94
2023-03-29T11:51:26.772Z,16.87
2023-03-29T11:54:01.975Z,16.67
2023-03-29T11:56:35.219Z,16.81
2023-03-29T11:59:16.779Z,16.87
2023-03-29T12:01:48.908Z,17.05
2023-03-29T12:04:24.042Z,17.19
2023-03-29T12:07:05.176Z,17.22
2023-03-29T12:09:36.559Z,17.13
2023-03-29T12:12:47.548Z,17.13
2023-03-29T12:15:20.046Z,17.32
2023-03-29T12:18:01.167Z,17.54
2023-03-29T12:20:31.612Z,17.52
2023-03-29T12:22:58.079Z,17.49
2023-03-29T12:25:37.906Z,17.98
2023-03-29T12:28:23.335Z,17.95
2023-03-29T12:30:57.048Z,17.77
2023-03-29T12:33:43.860Z,17.86
2023-03-29T12:36:13.251Z,18.05
2023-03-29T12:38:40.522Z,18.13
2023-03-29T12:41:21.712Z,18.30
2023-03-29T12:43:48.782Z,18.22
2023-03-29T12:46:24.630Z,18.26
2023-03-29T12:48:57.323Z,18.29
2023-03-29T12:51:30.747Z,18.31
2023-03-29T12:54:15.911Z,18.56
2023-03-29T12:57:19.101Z,18.95
2023-03-29T12:59:48.045Z,19.17
2023-03-29T13:02:14.492Z,19.22
2023-03-29T13:04:43.716Z,19.37
2023-03-29T13:07:29.977Z,19.03
2023-03-29T13:10:02.537Z,19.13
2023-03-29T13:12:35.669Z,19.30
2023-03-29T13:15:23.540Z,19.54
2023-03-29T13:17:49.937Z,19.26
2023-03-29T13:20:51.774Z,18.88
2023-03-29T13:23:31.735Z,18.82
2023-03-29T13:26:27.005Z,19.00
2023-03-29T13:29:12.099Z,18.83
2023-03-29T13:31:41.261Z,18.82
2023-03-29T13:34:17.714Z,18.87
2023-03-29T13:37:00.103Z,19.12
2023-03-29T13:39:32.182Z,19.06
2023-03-29T13:42:26.914Z,19.12
2023-03-29T13:45:19.199Z,18.82
2023-03-29T13:47:58.380Z,18.55
2023-03-29T13:50:38.259Z,18.56
2023-03-29T13:53:06.659Z,18.54
2023-03-29T13:55:38.470Z,18.27
2023-03-29T13:58:32.741Z,18.34
2023-03-29T14:01:02.630Z,18.25
2023-03-29T14:03:31.863Z,18.02
2023-03-29T14:06:00.710Z,18.06
2023-03-29T14:08:39.533Z,18.23
2023-03-29T14:12:39.559Z,18.58
2023-03-29T14:15:08.576Z,18.59
2023-03-29T14:17:36.457Z,18.55
2023-03-29T14:20:08.783Z,18.85
2023-03-29T14:22:35.802Z,18.59
2023-03-29T14:25:12.385Z,18.40
2023-03-29T14:27:39.053Z,18.69
2023-03-29T14:30:23.261Z,18.92
2023-03-29T14:32:51.250Z,18.63
2023-03-29T14:35:18.298Z,18.77
2023-03-29T14:37:46.436Z,19.00
2023-03-29T14:40:19.049Z,18.62
2023-03-29T14:42:47.312Z,18.28
2023-03-29T14:45:15.771Z,18.42
2023-03-29T14:47:42.868Z,18.54
2023-03-29T14:50:17.555Z,18.27
2023-03-29T14:52:46.396Z,18.19
2023-03-29T14:55:14.692Z,18.05
2023-03-29T14:57:42.140Z,18.09
2023-03-29T15:00:38.999Z,18.04
2023-03-29T15:03:15.402Z,17.78
2023-03-29T15:05:46.736Z,17.61
2023-03-29T15:08:16.185Z,17.85
2023-03-29T15:10:44.908Z,17.81
2023-03-29T15:13:17.394Z,17.93
2023-03-29T15:15:44.193Z,17.72
2023-03-29T15:18:14.025Z,17.68
2023-03-29T15:20:41.379Z,17.47
2023-03-29T15:23:16.815Z,17.44
2023-03-29T15:25:50.694Z,17.37
2023-03-29T15:28:32.616Z,17.09
2023-03-29T15:31:14.027Z,17.30
2023-03-29T15:33:41.638Z,17.49
2023-03-29T15:36:09.928Z,17.20
2023-03-29T15:38:44.130Z,17.52
2023-03-29T15:41:13.473Z,17.40
2023-03-29T15:43:41.340Z,17.50
2023-03-29T15:46:08.229Z,17.52
2023-03-29T15:48:34.914Z,17.39
2023-03-29T15:51:06.214Z,17.32
2023-03-29T15:53:33.279Z,17.33
2023-03-29T15:56:01.676Z,17.46
2023-03-29T15:58:30.786Z,17.35
2023-03-29T16:01:02.450Z,17.79
2023-03-29T16:03:29.051Z,17.50
2023-03-29T16:05:56.892Z,17.27
2023-03-29T16:08:24.942Z,17.19
2023-03-29T16:10:51.473Z,17.13
2023-03-29T16:13:17.904Z,16.84
2023-03-29T16:15:44.435Z,16.75
2023-03-29T16:18:10.957Z,16.57
2023-03-29T16:20:38.225Z,16.31
2023-03-29T16:23:09.235Z,16.28
2023-03-29T16:25:38.000Z,16.23
2023-03-29T16:28:05.626Z,16.21
2023-03-29T16:30:32.916Z,16.25
2023-03-29T16:32:59.411Z,15.95
2023-03-29T16:35:31.164Z,15.76
2023-03-29T16:37:57.722Z,15.77
2023-03-29T16:40:24.170Z,15.96
2023-03-29T16:42:51.298Z,15.91
2023-03-29T16:45:18.623Z,16.04
2023-03-29T16:47:45.503Z,16.02
2023-03-29T16:50:16.356Z,15.95
2023-03-29T16:52:43.125Z,16.07
2023-03-29T16:55:12.191Z,15.88
2023-03-29T16:57:40.106Z,16.04
2023-03-29T17:00:10.909Z,16.05
2023-03-29T17:02:37.411Z,15.97
2023-03-29T17:05:04.022Z,15.91
2023-03-29T17:07:30.706Z,15.83
2023-03-29T17:09:57.250Z,15.76
2023-03-29T17:12:23.855Z,15.70
2023-03-29T17:14:51.043Z,15.59
2023-03-29T17:17:17.421Z,15.44
2023-03-29T17:19:43.863Z,15.41
2023-03-29T17:22:10.266Z,15.33
2023-03-29T17:24:36.625Z,15.34
2023-03-29T17:27:03.062Z,15.23
2023-03-29T17:29:29.569Z,15.35
2023-03-29T17:31:56.008Z,15.35
2023-03-29T17:34:22.740Z,15.33
2023-03-29T17:36:49.154Z,15.27
2023-03-29T17:39:15.684Z,15.20
2023-03-29T17:41:43.208Z,15.17
2023-03-29T17:44:09.737Z,15.07
2023-03-29T17:46:37.788Z,15.05
2023-03-29T17:49:05.071Z,15.26
2023-03-29T17:51:31.486Z,15.45
2023-03-29T17:53:58.286Z,15.44
2023-03-29T17:56:24.900Z,15.53
2023-03-29T17:58:51.928Z,15.15
2023-03-29T18:01:22.025Z,15.25
2023-03-29T18:03:48.688Z,15.03
2023-03-29T18:06:19.426Z,14.97
2023-03-29T18:08:46.307Z,14.88
2023-03-29T18:11:16.078Z,14.81
2023-03-29T18:13:44.031Z,14.78
2023-03-29T18:16:12.275Z,14.70
2023-03-29T18:18:38.725Z,14.60
2023-03-29T18:21:06.941Z,14.58
2023-03-29T18:23:33.861Z,14.70
2023-03-29T18:26:03.597Z,14.94
2023-03-29T18:28:30.916Z,15.07
2023-03-29T18:30:57.769Z,15.17
2023-03-29T18:33:24.906Z,15.24
2023-03-29T18:35:52.032Z,15.12
2023-03-29T18:38:19.449Z,14.92
2023-03-29T18:40:47.230Z,14.75
2023-03-29T18:43:13.972Z,14.73
2023-03-29T18:45:40.383Z,14.69
2023-03-29T18:48:08.035Z,14.54
2023-03-29T18:50:35.986Z,14.56
2023-03-29T18:53:02.650Z,14.54
2023-03-29T18:55:29.432Z,14.51
2023-03-29T18:57:55.969Z,14.51
2023-03-29T19:00:22.798Z,14.45
2023-03-29T19:02:49.389Z,14.41
2023-03-29T19:05:16.007Z,14.44
2023-03-29T19:07:42.374Z,14.42
2023-03-29T19:10:08.990Z,14.36
2023-03-29T19:12:35.651Z,14.31
2023-03-29T19:15:02.122Z,14.30
2023-03-29T19:17:28.571Z,14.35
2023-03-29T19:19:56.532Z,14.31
2023-03-29T19:22:22.948Z,14.30
2023-03-29T19:24:49.706Z,14.25
2023-03-29T19:27:16.495Z,14.29
2023-03-29T19:29:42.962Z,14.32
2023-03-29T19:32:09.433Z,14.22
2023-03-29T19:34:36.160Z,14.31
2023-03-29T19:37:02.582Z,14.31
2023-03-29T19:39:29.820Z,14.20
2023-03-29T19:41:56.511Z,14.17
2023-03-29T19:44:25.864Z,14.19
2023-03-29T19:46:52.310Z,14.22
2023-03-29T19:49:18.782Z,14.21
2023-03-29T19:51:45.235Z,14.19
2023-03-29T19:54:14.792Z,14.25
2023-03-29T19:56:42.853Z,14.30
2023-03-29T19:59:11.244Z,14.28
2023-03-29T20:01:39.191Z,14.31
2023-03-29T20:04:05.941Z,14.22
2023-03-29T20:06:32.383Z,14.27
2023-03-29T20:08:58.837Z,14.26
2023-03-29T20:11:25.678Z,14.22
2023-03-29T20:13:52.370Z,14.28
2023-03-29T20:16:19.209Z,14.25
2023-03-29T20:18:46.506Z,14.23
2023-03-29T20:21:16.347Z,14.23
2023-03-29T20:23:43.174Z,14.14
2023-03-29T20:26:10.478Z,14.12
2023-03-29T20:28:40.044Z,14.03
2023-03-29T20:31:09.019Z,14.02
2023-03-29T20:33:35.601Z,14.02
2023-03-29T20:36:02.198Z,13.97
2023-03-29T20:38:28.932Z,13.98
2023-03-29T20:40:55.443Z,13.93
2023-03-29T20:43:21.898Z,13.90
2023-03-29T20:45:53.573Z,13.94
2023-03-29T20:48:30.201Z,13.89
2023-03-29T20:50:57.695Z,13.85
2023-03-29T20:53:24.971Z,13.91
2023-03-29T20:55:51.927Z,13.92
2023-03-29T20:58:18.320Z,13.95
2023-03-29T21:00:45.235Z,13.97
2023-03-29T21:03:12.209Z,13.93
2023-03-29T21:05:39.023Z,13.87
2023-03-29T21:08:05.688Z,13.89
2023-03-29T21:10:32.110Z,13.80
2023-03-29T21:13:00.266Z,13.89
2023-03-29T21:15:28.611Z,13.91
2023-03-29T21:17:55.158Z,13.90
2023-03-29T21:20:21.692Z,13.88
2023-03-29T21:22:48.076Z,13.86
2023-03-29T21:25:15.824Z,13.91
2023-03-29T21:27:42.621Z,13.99
2023-03-29T21:30:09.915Z,13.97
2023-03-29T21:32:36.530Z,13.92
2023-03-29T21:35:03.124Z,13.92
2023-03-29T21:37:29.537Z,13.93
2023-03-29T21:39:55.962Z,13.91
2023-03-29T21:42:22.584Z,13.90
2023-03-29T21:44:48.998Z,13.93
2023-03-29T21:47:15.646Z,13.82
2023-03-29T21:49:42.037Z,13.72
2023-03-29T21:52:08.653Z,13.65
2023-03-29T21:54:35.364Z,13.81
2023-03-29T21:57:01.871Z,13.77
2023-03-29T21:59:28.330Z,13.68
2023-03-29T22:01:55.037Z,13.72
2023-03-29T22:04:35.241Z,13.69
2023-03-29T22:07:03.238Z,13.73
2023-03-29T22:09:29.750Z,13.82
2023-03-29T22:11:56.818Z,13.86
2023-03-29T22:14:23.253Z,13.87
2023-03-29T22:16:49.707Z,13.94
2023-03-29T22:19:16.121Z,14.00
2023-03-29T22:21:42.570Z,13.98
2023-03-29T22:24:08.920Z,13.92
2023-03-29T22:26:35.564Z,13.93
2023-03-29T22:29:02.496Z,13.89
2023-03-29T22:31:29.671Z,13.89
2023-03-29T22:33:56.222Z,13.83
2023-03-29T22:36:28.249Z,13.91
2023-03-29T22:38:55.277Z,13.96
2023-03-29T22:41:23.683Z,14.07
2023-03-29T22:43:54.479Z,13.85
2023-03-29T22:46:21.358Z,13.92
2023-03-29T22:48:48.230Z,13.92
2023-03-29T22:51:14.838Z,13.90
2023-03-29T22:53:41.428Z,13.84
2023-03-29T22:56:09.136Z,13.81
2023-03-29T22:58:36.850Z,13.80
2023-03-29T23:01:03.885Z,13.58
2023-03-29T23:03:31.002Z,13.62
2023-03-29T23:05:58.869Z,13.73
2023-03-29T23:08:26.346Z,13.73
2023-03-29T23:10:52.786Z,13.78
2023-03-29T23:13:29.433Z,13.68
2023-03-29T23:15:58.802Z,13.69
2023-03-29T23:18:26.814Z,13.63
2023-03-29T23:20:54.724Z,13.59
2023-03-29T23:23:21.949Z,13.65
2023-03-29T23:25:49.438Z,13.67
2023-03-29T23:28:21.540Z,13.65
2023-03-29T23:31:02.751Z,13.63
2023-03-29T23:33:33.331Z,13.59
2023-03-29T23:36:03.224Z,13.63
2023-03-29T23:38:30.670Z,13.61
2023-03-29T23:41:02.163Z,13.67
2023-03-29T23:43:33.954Z,13.68
2023-03-29T23:46:05.050Z,13.63
2023-03-29T23:48:32.537Z,13.68
2023-03-29T23:50:58.959Z,13.71
2023-03-29T23:53:28.326Z,13.74
2023-03-29T23:56:02.365Z,13.82
2023-03-29T23:58:33.668Z,13.72
